sensor_id;sensor_type;location;lat;lon;timestamp;temperature;humidity
21184;DHT22;18176;49.502;11.754;2022-08-21T00:02:12;14.80;99.90
21184;DHT22;18176;49.502;11.754;2022-08-21T00:06:21;14.70;99.90
21184;DHT22;18176;49.502;11.754;2022-08-21T00:10:20;14.70;99.90
21184;DHT22;18176;49.502;11.754;2022-08-21T00:14:18;14.70;99.90
21184;DHT22;18176;49.502;11.754;2022-08-21T00:18:16;14.70;99.90
21184;DHT22;18176;49.502;11.754;2022-08-21T00:22:14;14.70;99.90
21184;DHT22;18176;49.502;11.754;2022-08-21T00:26:12;14.70;99.90
21184;DHT22;18176;49.502;11.754;2022-08-21T00:30:10;14.70;99.90
21184;DHT22;18176;49.502;11.754;2022-08-21T00:34:19;14.70;99.90
21184;DHT22;18176;49.502;11.754;2022-08-21T00:38:16;14.70;99.90
21184;DHT22;18176;49.502;11.754;2022-08-21T00:42:13;14.70;99.90
21184;DHT22;18176;49.502;11.754;2022-08-21T00:46:14;14.70;99.90
21184;DHT22;18176;49.502;11.754;2022-08-21T00:50:11;14.60;99.90
21184;DHT22;18176;49.502;11.754;2022-08-21T00:54:20;14.60;99.90
21184;DHT22;18176;49.502;11.754;2022-08-21T00:58:22;14.60;99.90
21184;DHT22;18176;49.502;11.754;2022-08-21T01:02:21;14.60;99.90
21184;DHT22;18176;49.502;11.754;2022-08-21T01:06:18;14.60;99.90
21184;DHT22;18176;49.502;11.754;2022-08-21T01:10:16;14.50;99.90
21184;DHT22;18176;49.502;11.754;2022-08-21T01:14:20;14.50;99.90
21184;DHT22;18176;49.502;11.754;2022-08-21T01:18:18;14.40;99.90
21184;DHT22;18176;49.502;11.754;2022-08-21T01:22:17;14.50;99.90
21184;DHT22;18176;49.502;11.754;2022-08-21T01:26:20;14.50;99.90
21184;DHT22;18176;49.502;11.754;2022-08-21T01:30:29;14.50;99.90
21184;DHT22;18176;49.502;11.754;2022-08-21T01:34:29;14.40;99.90
21184;DHT22;18176;49.502;11.754;2022-08-21T01:38:27;14.30;99.90
21184;DHT22;18176;49.502;11.754;2022-08-21T01:42:24;14.30;99.90
21184;DHT22;18176;49.502;11.754;2022-08-21T01:46:22;14.30;99.90
21184;DHT22;18176;49.502;11.754;2022-08-21T01:50:20;14.30;99.90
21184;DHT22;18176;49.502;11.754;2022-08-21T01:54:18;14.30;99.90
21184;DHT22;18176;49.502;11.754;2022-08-21T01:58:15;14.30;99.90
21184;DHT22;18176;49.502;11.754;2022-08-21T02:02:12;14.30;99.90
21184;DHT22;18176;49.502;11.754;2022-08-21T02:06:13;14.30;99.90
21184;DHT22;18176;49.502;11.754;2022-08-21T02:10:19;14.30;99.90
21184;DHT22;18176;49.502;11.754;2022-08-21T02:14:22;14.20;99.90
21184;DHT22;18176;49.502;11.754;2022-08-21T02:18:28;14.10;99.90
21184;DHT22;18176;49.502;11.754;2022-08-21T02:22:26;14.10;99.90
21184;DHT22;18176;49.502;11.754;2022-08-21T02:26:23;14.00;99.90
21184;DHT22;18176;49.502;11.754;2022-08-21T02:30:24;14.00;99.90
21184;DHT22;18176;49.502;11.754;2022-08-21T02:34:26;13.90;99.90
21184;DHT22;18176;49.502;11.754;2022-08-21T02:38:28;13.90;99.90
21184;DHT22;18176;49.502;11.754;2022-08-21T02:42:27;13.90;99.90
21184;DHT22;18176;49.502;11.754;2022-08-21T02:46:24;13.90;99.90
21184;DHT22;18176;49.502;11.754;2022-08-21T02:50:26;14.00;99.90
21184;DHT22;18176;49.502;11.754;2022-08-21T02:54:25;13.90;99.90
21184;DHT22;18176;49.502;11.754;2022-08-21T02:58:26;13.90;99.90
21184;DHT22;18176;49.502;11.754;2022-08-21T03:02:26;13.90;99.90
21184;DHT22;18176;49.502;11.754;2022-08-21T03:06:23;13.80;99.90
21184;DHT22;18176;49.502;11.754;2022-08-21T03:10:21;13.80;99.90
21184;DHT22;18176;49.502;11.754;2022-08-21T03:14:18;13.80;99.90
21184;DHT22;18176;49.502;11.754;2022-08-21T03:18:18;13.70;99.90
21184;DHT22;18176;49.502;11.754;2022-08-21T03:22:15;13.60;99.90
21184;DHT22;18176;49.502;11.754;2022-08-21T03:26:12;13.60;99.90
21184;DHT22;18176;49.502;11.754;2022-08-21T03:30:11;13.60;99.90
21184;DHT22;18176;49.502;11.754;2022-08-21T03:34:08;13.60;99.90
21184;DHT22;18176;49.502;11.754;2022-08-21T03:38:06;13.60;99.90
21184;DHT22;18176;49.502;11.754;2022-08-21T03:42:03;13.60;99.90
21184;DHT22;18176;49.502;11.754;2022-08-21T03:46:02;13.50;99.90
21184;DHT22;18176;49.502;11.754;2022-08-21T03:50:02;13.40;99.90
21184;DHT22;18176;49.502;11.754;2022-08-21T03:54:03;13.40;99.90
21184;DHT22;18176;49.502;11.754;2022-08-21T03:58:00;13.30;99.90
21184;DHT22;18176;49.502;11.754;2022-08-21T04:02:14;13.30;99.90
21184;DHT22;18176;49.502;11.754;2022-08-21T04:06:16;13.30;99.90
21184;DHT22;18176;49.502;11.754;2022-08-21T04:10:14;13.40;99.90
21184;DHT22;18176;49.502;11.754;2022-08-21T04:14:12;13.50;99.90
21184;DHT22;18176;49.502;11.754;2022-08-21T04:18:10;13.60;99.90
21184;DHT22;18176;49.502;11.754;2022-08-21T04:22:08;13.70;99.90
21184;DHT22;18176;49.502;11.754;2022-08-21T04:26:05;13.70;99.90
21184;DHT22;18176;49.502;11.754;2022-08-21T04:30:07;13.80;99.90
21184;DHT22;18176;49.502;11.754;2022-08-21T04:34:05;13.90;99.90
21184;DHT22;18176;49.502;11.754;2022-08-21T04:38:02;14.00;99.90
21184;DHT22;18176;49.502;11.754;2022-08-21T04:41:59;14.00;99.90
21184;DHT22;18176;49.502;11.754;2022-08-21T04:45:56;14.10;99.90
21184;DHT22;18176;49.502;11.754;2022-08-21T04:49:53;14.20;99.90
21184;DHT22;18176;49.502;11.754;2022-08-21T04:53:54;14.20;99.90
21184;DHT22;18176;49.502;11.754;2022-08-21T04:57:56;14.20;99.90
21184;DHT22;18176;49.502;11.754;2022-08-21T05:01:54;14.30;99.90
21184;DHT22;18176;49.502;11.754;2022-08-21T05:05:53;14.40;99.90
21184;DHT22;18176;49.502;11.754;2022-08-21T05:09:51;14.50;99.90
21184;DHT22;18176;49.502;11.754;2022-08-21T05:13:49;14.60;99.90
21184;DHT22;18176;49.502;11.754;2022-08-21T05:17:53;14.60;99.90
21184;DHT22;18176;49.502;11.754;2022-08-21T05:21:57;14.60;99.90
21184;DHT22;18176;49.502;11.754;2022-08-21T05:25:54;14.60;99.90
21184;DHT22;18176;49.502;11.754;2022-08-21T05:29:52;14.60;99.90
21184;DHT22;18176;49.502;11.754;2022-08-21T05:33:49;14.60;99.90
21184;DHT22;18176;49.502;11.754;2022-08-21T05:37:47;14.70;99.90
21184;DHT22;18176;49.502;11.754;2022-08-21T05:41:44;14.70;99.90
21184;DHT22;18176;49.502;11.754;2022-08-21T05:45:42;14.70;99.90
21184;DHT22;18176;49.502;11.754;2022-08-21T05:49:40;14.80;99.90
21184;DHT22;18176;49.502;11.754;2022-08-21T05:53:38;14.90;99.90
21184;DHT22;18176;49.502;11.754;2022-08-21T05:57:35;15.00;99.90
21184;DHT22;18176;49.502;11.754;2022-08-21T06:01:33;15.10;99.90
21184;DHT22;18176;49.502;11.754;2022-08-21T06:05:30;15.30;99.90
21184;DHT22;18176;49.502;11.754;2022-08-21T06:09:32;15.40;99.90
21184;DHT22;18176;49.502;11.754;2022-08-21T06:13:32;15.50;99.90
21184;DHT22;18176;49.502;11.754;2022-08-21T06:17:30;15.60;99.90
21184;DHT22;18176;49.502;11.754;2022-08-21T06:21:27;15.60;99.90
21184;DHT22;18176;49.502;11.754;2022-08-21T06:25:24;15.50;99.90
21184;DHT22;18176;49.502;11.754;2022-08-21T06:29:22;15.50;99.90
21184;DHT22;18176;49.502;11.754;2022-08-21T06:33:19;15.50;99.90
21184;DHT22;18176;49.502;11.754;2022-08-21T06:37:17;15.50;99.90
21184;DHT22;18176;49.502;11.754;2022-08-21T06:41:14;15.60;99.90
21184;DHT22;18176;49.502;11.754;2022-08-21T06:45:11;15.80;99.90
21184;DHT22;18176;49.502;11.754;2022-08-21T06:49:08;15.90;99.90
21184;DHT22;18176;49.502;11.754;2022-08-21T06:53:19;16.00;99.90
21184;DHT22;18176;49.502;11.754;2022-08-21T06:57:17;16.20;99.90
21184;DHT22;18176;49.502;11.754;2022-08-21T07:01:14;16.40;99.90
21184;DHT22;18176;49.502;11.754;2022-08-21T07:05:11;16.50;99.90
21184;DHT22;18176;49.502;11.754;2022-08-21T07:09:14;16.50;99.90
21184;DHT22;18176;49.502;11.754;2022-08-21T07:13:11;16.50;99.90
21184;DHT22;18176;49.502;11.754;2022-08-21T07:17:09;16.60;99.90
21184;DHT22;18176;49.502;11.754;2022-08-21T07:21:06;16.80;99.90
21184;DHT22;18176;49.502;11.754;2022-08-21T07:25:05;16.90;99.90
21184;DHT22;18176;49.502;11.754;2022-08-21T07:29:04;16.80;99.90
21184;DHT22;18176;49.502;11.754;2022-08-21T07:33:01;16.90;99.90
21184;DHT22;18176;49.502;11.754;2022-08-21T07:36:58;17.00;99.90
21184;DHT22;18176;49.502;11.754;2022-08-21T07:41:02;17.10;99.90
21184;DHT22;18176;49.502;11.754;2022-08-21T07:45:14;17.20;99.90
21184;DHT22;18176;49.502;11.754;2022-08-21T07:49:12;17.50;99.90
21184;DHT22;18176;49.502;11.754;2022-08-21T07:53:09;17.50;99.90
21184;DHT22;18176;49.502;11.754;2022-08-21T07:57:06;17.40;99.90
21184;DHT22;18176;49.502;11.754;2022-08-21T08:01:05;17.40;99.90
21184;DHT22;18176;49.502;11.754;2022-08-21T08:05:05;17.50;99.90
21184;DHT22;18176;49.502;11.754;2022-08-21T08:09:04;17.40;99.90
21184;DHT22;18176;49.502;11.754;2022-08-21T08:13:01;17.50;99.90
21184;DHT22;18176;49.502;11.754;2022-08-21T08:16:58;17.60;99.90
21184;DHT22;18176;49.502;11.754;2022-08-21T08:20:55;17.50;99.90
21184;DHT22;18176;49.502;11.754;2022-08-21T08:24:53;17.70;99.90
21184;DHT22;18176;49.502;11.754;2022-08-21T08:28:51;17.80;99.90
21184;DHT22;18176;49.502;11.754;2022-08-21T08:32:48;17.80;99.90
21184;DHT22;18176;49.502;11.754;2022-08-21T08:36:46;17.80;99.90
21184;DHT22;18176;49.502;11.754;2022-08-21T08:45:18;18.00;99.90
21184;DHT22;18176;49.502;11.754;2022-08-21T08:53:51;18.40;99.90
21184;DHT22;18176;49.502;11.754;2022-08-21T08:57:54;18.50;99.90
21184;DHT22;18176;49.502;11.754;2022-08-21T09:01:52;18.70;99.90
21184;DHT22;18176;49.502;11.754;2022-08-21T09:14:33;19.10;99.90
21184;DHT22;18176;49.502;11.754;2022-08-21T09:19:08;19.30;99.90
21184;DHT22;18176;49.502;11.754;2022-08-21T09:27:42;20.50;99.90
21184;DHT22;18176;49.502;11.754;2022-08-21T09:31:40;20.90;99.90
21184;DHT22;18176;49.502;11.754;2022-08-21T09:35:50;21.00;99.90
21184;DHT22;18176;49.502;11.754;2022-08-21T09:39:49;21.00;99.90
21184;DHT22;18176;49.502;11.754;2022-08-21T09:43:53;21.00;99.90
21184;DHT22;18176;49.502;11.754;2022-08-21T09:47:50;21.20;99.90
21184;DHT22;18176;49.502;11.754;2022-08-21T09:51:52;21.40;99.90
21184;DHT22;18176;49.502;11.754;2022-08-21T09:56:00;21.40;99.90
21184;DHT22;18176;49.502;11.754;2022-08-21T10:00:30;21.80;99.90
21184;DHT22;18176;49.502;11.754;2022-08-21T10:04:35;21.80;99.90
21184;DHT22;18176;49.502;11.754;2022-08-21T10:08:34;21.70;99.90
21184;DHT22;18176;49.502;11.754;2022-08-21T10:17:35;22.00;99.90
21184;DHT22;18176;49.502;11.754;2022-08-21T10:21:54;22.70;99.90
21184;DHT22;18176;49.502;11.754;2022-08-21T10:39:34;27.10;99.90
21184;DHT22;18176;49.502;11.754;2022-08-21T10:43:51;28.10;99.90
21184;DHT22;18176;49.502;11.754;2022-08-21T10:48:04;27.50;99.90
21184;DHT22;18176;49.502;11.754;2022-08-21T10:52:33;26.10;99.90
21184;DHT22;18176;49.502;11.754;2022-08-21T10:57:00;24.80;99.90
21184;DHT22;18176;49.502;11.754;2022-08-21T11:01:15;24.90;99.90
21184;DHT22;18176;49.502;11.754;2022-08-21T11:05:31;24.70;99.90
21184;DHT22;18176;49.502;11.754;2022-08-21T11:09:32;24.70;99.90
21184;DHT22;18176;49.502;11.754;2022-08-21T11:13:53;24.50;99.90
21184;DHT22;18176;49.502;11.754;2022-08-21T11:23:01;26.20;99.90
21184;DHT22;18176;49.502;11.754;2022-08-21T11:32:01;29.20;99.90
21184;DHT22;18176;49.502;11.754;2022-08-21T11:40:58;29.30;99.90
21184;DHT22;18176;49.502;11.754;2022-08-21T11:45:30;28.60;99.90
21184;DHT22;18176;49.502;11.754;2022-08-21T11:53:49;30.20;99.90
21184;DHT22;18176;49.502;11.754;2022-08-21T12:02:28;31.40;99.90
21184;DHT22;18176;49.502;11.754;2022-08-21T12:06:40;32.20;99.90
21184;DHT22;18176;49.502;11.754;2022-08-21T12:10:41;31.40;99.50
21184;DHT22;18176;49.502;11.754;2022-08-21T12:14:47;31.10;99.70
21184;DHT22;18176;49.502;11.754;2022-08-21T12:18:45;31.00;98.90
21184;DHT22;18176;49.502;11.754;2022-08-21T12:22:51;31.30;98.40
21184;DHT22;18176;49.502;11.754;2022-08-21T12:26:54;31.00;98.20
21184;DHT22;18176;49.502;11.754;2022-08-21T12:30:56;30.60;98.00
21184;DHT22;18176;49.502;11.754;2022-08-21T12:35:01;31.00;96.90
21184;DHT22;18176;49.502;11.754;2022-08-21T12:39:05;31.30;96.20
21184;DHT22;18176;49.502;11.754;2022-08-21T12:43:20;31.10;95.20
21184;DHT22;18176;49.502;11.754;2022-08-21T12:52:11;31.20;94.20
21184;DHT22;18176;49.502;11.754;2022-08-21T12:56:20;31.30;91.70
21184;DHT22;18176;49.502;11.754;2022-08-21T13:00:24;32.00;91.20
21184;DHT22;18176;49.502;11.754;2022-08-21T13:04:32;31.80;90.40
21184;DHT22;18176;49.502;11.754;2022-08-21T13:08:35;31.80;90.80
21184;DHT22;18176;49.502;11.754;2022-08-21T13:12:42;32.00;89.20
21184;DHT22;18176;49.502;11.754;2022-08-21T13:16:41;31.80;87.20
21184;DHT22;18176;49.502;11.754;2022-08-21T13:20:40;31.70;84.30
21184;DHT22;18176;49.502;11.754;2022-08-21T13:24:39;31.20;84.90
21184;DHT22;18176;49.502;11.754;2022-08-21T13:28:39;31.30;87.10
21184;DHT22;18176;49.502;11.754;2022-08-21T13:32:43;31.60;79.80
21184;DHT22;18176;49.502;11.754;2022-08-21T13:36:45;31.50;82.30
21184;DHT22;18176;49.502;11.754;2022-08-21T13:40:49;32.10;80.50
21184;DHT22;18176;49.502;11.754;2022-08-21T13:44:47;31.70;79.10
21184;DHT22;18176;49.502;11.754;2022-08-21T13:48:44;31.00;79.90
21184;DHT22;18176;49.502;11.754;2022-08-21T13:53:20;30.60;82.60
21184;DHT22;18176;49.502;11.754;2022-08-21T13:57:27;30.80;83.30
21184;DHT22;18176;49.502;11.754;2022-08-21T14:01:31;30.90;83.00
21184;DHT22;18176;49.502;11.754;2022-08-21T14:05:36;31.00;82.50
21184;DHT22;18176;49.502;11.754;2022-08-21T14:09:41;31.20;82.00
21184;DHT22;18176;49.502;11.754;2022-08-21T14:17:51;31.10;78.50
21184;DHT22;18176;49.502;11.754;2022-08-21T14:21:49;32.00;76.70
21184;DHT22;18176;49.502;11.754;2022-08-21T14:25:46;32.10;75.90
21184;DHT22;18176;49.502;11.754;2022-08-21T14:29:43;31.70;76.00
21184;DHT22;18176;49.502;11.754;2022-08-21T14:33:41;31.40;76.20
21184;DHT22;18176;49.502;11.754;2022-08-21T14:37:41;31.30;76.60
21184;DHT22;18176;49.502;11.754;2022-08-21T14:41:39;31.20;78.30
21184;DHT22;18176;49.502;11.754;2022-08-21T14:45:36;31.90;76.40
21184;DHT22;18176;49.502;11.754;2022-08-21T14:49:37;31.50;75.60
21184;DHT22;18176;49.502;11.754;2022-08-21T14:53:34;31.40;74.10
21184;DHT22;18176;49.502;11.754;2022-08-21T14:57:31;30.80;74.80
21184;DHT22;18176;49.502;11.754;2022-08-21T15:01:28;30.60;74.80
21184;DHT22;18176;49.502;11.754;2022-08-21T15:05:25;30.90;75.30
21184;DHT22;18176;49.502;11.754;2022-08-21T15:09:29;30.90;73.50
21184;DHT22;18176;49.502;11.754;2022-08-21T15:13:26;30.90;71.00
21184;DHT22;18176;49.502;11.754;2022-08-21T15:17:24;30.50;71.00
21184;DHT22;18176;49.502;11.754;2022-08-21T15:21:22;30.50;71.00
21184;DHT22;18176;49.502;11.754;2022-08-21T15:25:19;31.20;70.60
21184;DHT22;18176;49.502;11.754;2022-08-21T15:29:16;31.50;69.60
21184;DHT22;18176;49.502;11.754;2022-08-21T15:33:18;31.70;67.10
21184;DHT22;18176;49.502;11.754;2022-08-21T15:37:15;31.60;69.90
21184;DHT22;18176;49.502;11.754;2022-08-21T15:41:13;31.90;64.90
21184;DHT22;18176;49.502;11.754;2022-08-21T15:45:12;31.90;64.10
21184;DHT22;18176;49.502;11.754;2022-08-21T15:49:10;32.70;62.50
21184;DHT22;18176;49.502;11.754;2022-08-21T15:53:07;33.20;62.80
21184;DHT22;18176;49.502;11.754;2022-08-21T15:57:04;33.50;60.60
21184;DHT22;18176;49.502;11.754;2022-08-21T16:01:02;33.10;59.40
21184;DHT22;18176;49.502;11.754;2022-08-21T16:04:59;33.00;59.40
21184;DHT22;18176;49.502;11.754;2022-08-21T16:08:57;33.00;59.10
21184;DHT22;18176;49.502;11.754;2022-08-21T16:13:01;33.20;58.70
21184;DHT22;18176;49.502;11.754;2022-08-21T16:17:00;32.90;59.40
21184;DHT22;18176;49.502;11.754;2022-08-21T16:20:57;33.20;59.40
21184;DHT22;18176;49.502;11.754;2022-08-21T16:24:54;33.40;58.40
21184;DHT22;18176;49.502;11.754;2022-08-21T16:28:54;33.30;57.60
21184;DHT22;18176;49.502;11.754;2022-08-21T16:32:54;33.20;57.60
21184;DHT22;18176;49.502;11.754;2022-08-21T16:36:52;33.00;56.80
21184;DHT22;18176;49.502;11.754;2022-08-21T16:40:50;32.00;57.30
21184;DHT22;18176;49.502;11.754;2022-08-21T16:44:47;30.70;58.70
21184;DHT22;18176;49.502;11.754;2022-08-21T16:48:46;30.10;60.20
21184;DHT22;18176;49.502;11.754;2022-08-21T16:52:44;29.90;60.70
21184;DHT22;18176;49.502;11.754;2022-08-21T16:56:41;29.40;60.70
21184;DHT22;18176;49.502;11.754;2022-08-21T17:00:43;28.90;62.20
21184;DHT22;18176;49.502;11.754;2022-08-21T17:04:40;28.50;63.70
21184;DHT22;18176;49.502;11.754;2022-08-21T17:08:38;28.50;63.60
21184;DHT22;18176;49.502;11.754;2022-08-21T17:12:35;28.30;64.70
21184;DHT22;18176;49.502;11.754;2022-08-21T17:16:32;28.00;65.50
21184;DHT22;18176;49.502;11.754;2022-08-21T17:20:31;27.60;65.80
21184;DHT22;18176;49.502;11.754;2022-08-21T17:24:30;27.40;66.50
21184;DHT22;18176;49.502;11.754;2022-08-21T17:28:31;27.10;67.50
21184;DHT22;18176;49.502;11.754;2022-08-21T17:32:32;26.90;69.00
21184;DHT22;18176;49.502;11.754;2022-08-21T17:36:30;26.90;70.80
21184;DHT22;18176;49.502;11.754;2022-08-21T17:40:27;26.70;71.10
21184;DHT22;18176;49.502;11.754;2022-08-21T17:44:25;26.50;72.30
21184;DHT22;18176;49.502;11.754;2022-08-21T17:48:22;26.20;73.70
21184;DHT22;18176;49.502;11.754;2022-08-21T17:52:22;25.90;76.20
21184;DHT22;18176;49.502;11.754;2022-08-21T17:56:20;25.80;76.80
21184;DHT22;18176;49.502;11.754;2022-08-21T18:00:19;25.40;78.90
21184;DHT22;18176;49.502;11.754;2022-08-21T18:04:16;25.00;81.10
21184;DHT22;18176;49.502;11.754;2022-08-21T18:08:14;24.60;84.10
21184;DHT22;18176;49.502;11.754;2022-08-21T18:12:12;24.20;89.80
21184;DHT22;18176;49.502;11.754;2022-08-21T18:16:09;23.70;91.10
21184;DHT22;18176;49.502;11.754;2022-08-21T18:20:17;23.30;91.80
21184;DHT22;18176;49.502;11.754;2022-08-21T18:24:16;22.80;93.10
21184;DHT22;18176;49.502;11.754;2022-08-21T18:28:15;22.40;94.10
21184;DHT22;18176;49.502;11.754;2022-08-21T18:32:21;22.20;96.00
21184;DHT22;18176;49.502;11.754;2022-08-21T18:36:28;21.90;97.10
21184;DHT22;18176;49.502;11.754;2022-08-21T18:40:25;21.60;98.60
21184;DHT22;18176;49.502;11.754;2022-08-21T18:44:23;21.40;99.40
21184;DHT22;18176;49.502;11.754;2022-08-21T18:48:23;21.10;99.90
21184;DHT22;18176;49.502;11.754;2022-08-21T18:52:24;20.90;99.90
21184;DHT22;18176;49.502;11.754;2022-08-21T18:56:26;20.70;99.90
21184;DHT22;18176;49.502;11.754;2022-08-21T19:00:29;20.50;99.90
21184;DHT22;18176;49.502;11.754;2022-08-21T19:04:31;20.40;99.90
21184;DHT22;18176;49.502;11.754;2022-08-21T19:08:40;20.30;99.90
21184;DHT22;18176;49.502;11.754;2022-08-21T19:12:37;20.30;99.90
21184;DHT22;18176;49.502;11.754;2022-08-21T19:16:37;20.30;99.90
21184;DHT22;18176;49.502;11.754;2022-08-21T19:20:43;20.30;99.90
21184;DHT22;18176;49.502;11.754;2022-08-21T19:24:43;20.30;99.90
21184;DHT22;18176;49.502;11.754;2022-08-21T19:28:50;20.20;99.90
21184;DHT22;18176;49.502;11.754;2022-08-21T19:32:49;20.20;99.90
21184;DHT22;18176;49.502;11.754;2022-08-21T19:36:47;20.10;99.90
21184;DHT22;18176;49.502;11.754;2022-08-21T19:40:44;20.00;99.90
21184;DHT22;18176;49.502;11.754;2022-08-21T19:44:42;20.00;99.90
21184;DHT22;18176;49.502;11.754;2022-08-21T19:48:41;20.10;99.90
21184;DHT22;18176;49.502;11.754;2022-08-21T19:52:42;20.00;99.90
21184;DHT22;18176;49.502;11.754;2022-08-21T19:56:47;19.90;99.90
21184;DHT22;18176;49.502;11.754;2022-08-21T20:00:45;19.80;99.90
21184;DHT22;18176;49.502;11.754;2022-08-21T20:04:42;19.60;99.90
21184;DHT22;18176;49.502;11.754;2022-08-21T20:09:00;19.50;99.90
21184;DHT22;18176;49.502;11.754;2022-08-21T20:13:03;19.30;99.90
21184;DHT22;18176;49.502;11.754;2022-08-21T20:17:08;19.10;99.90
21184;DHT22;18176;49.502;11.754;2022-08-21T20:21:10;18.90;99.90
21184;DHT22;18176;49.502;11.754;2022-08-21T20:25:10;18.80;99.90
21184;DHT22;18176;49.502;11.754;2022-08-21T20:29:09;18.60;99.90
21184;DHT22;18176;49.502;11.754;2022-08-21T20:33:06;18.50;99.90
21184;DHT22;18176;49.502;11.754;2022-08-21T20:37:04;18.50;99.90
21184;DHT22;18176;49.502;11.754;2022-08-21T20:41:01;18.30;99.90
21184;DHT22;18176;49.502;11.754;2022-08-21T20:44:59;18.20;99.90
21184;DHT22;18176;49.502;11.754;2022-08-21T20:49:04;18.10;99.90
21184;DHT22;18176;49.502;11.754;2022-08-21T20:53:11;17.90;99.90
21184;DHT22;18176;49.502;11.754;2022-08-21T20:57:12;17.80;99.90
21184;DHT22;18176;49.502;11.754;2022-08-21T21:01:11;17.80;99.90
21184;DHT22;18176;49.502;11.754;2022-08-21T21:05:38;17.60;99.90
21184;DHT22;18176;49.502;11.754;2022-08-21T21:09:43;17.50;99.90
21184;DHT22;18176;49.502;11.754;2022-08-21T21:14:01;17.40;99.90
21184;DHT22;18176;49.502;11.754;2022-08-21T21:18:15;17.30;99.90
21184;DHT22;18176;49.502;11.754;2022-08-21T21:23:02;17.20;99.90
21184;DHT22;18176;49.502;11.754;2022-08-21T21:26:57;17.10;99.90
21184;DHT22;18176;49.502;11.754;2022-08-21T21:31:10;17.00;99.90
21184;DHT22;18176;49.502;11.754;2022-08-21T21:35:11;17.00;99.90
21184;DHT22;18176;49.502;11.754;2022-08-21T22:07:04;16.60;99.90
21184;DHT22;18176;49.502;11.754;2022-08-21T22:15:36;16.40;99.90
21184;DHT22;18176;49.502;11.754;2022-08-21T22:19:39;16.30;99.90
21184;DHT22;18176;49.502;11.754;2022-08-21T22:23:48;16.20;99.90
21184;DHT22;18176;49.502;11.754;2022-08-21T22:27:56;16.20;99.90
21184;DHT22;18176;49.502;11.754;2022-08-21T22:32:07;16.10;99.90
21184;DHT22;18176;49.502;11.754;2022-08-21T22:36:15;16.10;99.90
21184;DHT22;18176;49.502;11.754;2022-08-21T22:40:33;16.00;99.90
21184;DHT22;18176;49.502;11.754;2022-08-21T22:44:31;15.90;99.90
21184;DHT22;18176;49.502;11.754;2022-08-21T22:48:32;15.90;99.90
21184;DHT22;18176;49.502;11.754;2022-08-21T22:52:35;15.80;99.90
21184;DHT22;18176;49.502;11.754;2022-08-21T22:56:42;15.80;99.90
21184;DHT22;18176;49.502;11.754;2022-08-21T23:00:56;15.70;99.90
21184;DHT22;18176;49.502;11.754;2022-08-21T23:05:01;15.60;99.90
21184;DHT22;18176;49.502;11.754;2022-08-21T23:13:27;15.40;99.90
21184;DHT22;18176;49.502;11.754;2022-08-21T23:22:26;15.30;99.90
21184;DHT22;18176;49.502;11.754;2022-08-21T23:26:46;15.30;99.90
21184;DHT22;18176;49.502;11.754;2022-08-21T23:31:27;15.20;99.90
21184;DHT22;18176;49.502;11.754;2022-08-21T23:35:56;15.30;99.90
21184;DHT22;18176;49.502;11.754;2022-08-21T23:44:47;15.30;99.90
21184;DHT22;18176;49.502;11.754;2022-08-21T23:53:57;15.10;99.90
